Time;durP1;ratioP1;P1;durP2;ratioP2;P2;SDS_P1;SDS_P2;PMS_P1;PMS_P2;Temp;Humidity;BMP_temperature;BMP_pressure;BME280_temperature;BME280_humidity;BME280_pressure;Samples;Min_cycle;Max_cycle;Signal;HPM_P1;HPM_P2
2023/06/02 00:01:13;;;;;;;2.28;1.83;;;21.00;62.10;;;;;;4968101;28;20208;-67
2023/06/02 00:03:40;;;;;;;2.30;2.10;;;21.00;62.10;;;;;;4983869;28;20276;-67
2023/06/02 00:06:09;;;;;;;2.40;2.20;;;21.00;62.10;;;;;;4975608;28;20248;-67
2023/06/02 00:08:40;;;;;;;2.30;2.10;;;21.00;62.90;;;;;;4976685;28;20595;-67
2023/06/02 00:11:09;;;;;;;3.35;2.22;;;21.00;62.10;;;;;;4995369;28;20200;-67
2023/06/02 00:13:35;;;;;;;2.30;2.10;;;21.00;62.10;;;;;;4988506;28;20194;-67
2023/06/02 00:16:01;;;;;;;2.35;2.15;;;21.00;62.20;;;;;;4985603;28;20223;-67
2023/06/02 00:18:27;;;;;;;2.63;2.22;;;21.00;62.10;;;;;;4981076;28;20728;-67
2023/06/02 00:20:56;;;;;;;2.30;2.10;;;21.00;62.10;;;;;;4983281;28;20245;-67
2023/06/02 00:23:22;;;;;;;2.15;2.03;;;21.00;62.20;;;;;;4996345;28;20268;-67
2023/06/02 00:25:48;;;;;;;2.17;1.92;;;21.00;62.10;;;;;;4978550;28;20218;-67
2023/06/02 00:28:14;;;;;;;2.20;2.00;;;21.00;62.10;;;;;;4980626;28;20245;-67
2023/06/02 00:30:39;;;;;;;2.40;2.20;;;20.90;62.10;;;;;;4975194;28;20252;-69
2023/06/02 00:33:05;;;;;;;2.42;2.00;;;21.00;62.20;;;;;;4992423;28;20185;-67
2023/06/02 00:35:31;;;;;;;2.00;1.90;;;20.90;62.10;;;;;;4997238;28;20196;-67
2023/06/02 00:38:02;;;;;;;1.98;1.88;;;21.00;62.10;;;;;;4976813;28;20218;-67
2023/06/02 00:40:28;;;;;;;2.67;1.92;;;20.90;62.10;;;;;;4974776;28;20220;-67
2023/06/02 00:42:54;;;;;;;2.30;2.08;;;21.00;62.20;;;;;;4974819;28;20189;-68
2023/06/02 00:45:20;;;;;;;2.40;2.20;;;20.90;62.10;;;;;;4974789;28;20190;-66
2023/06/02 00:47:45;;;;;;;4.35;2.17;;;21.00;62.10;;;;;;4983169;28;20215;-66
2023/06/02 00:50:11;;;;;;;1.90;1.80;;;20.90;62.10;;;;;;4990772;28;20198;-68
2023/06/02 00:52:40;;;;;;;2.10;1.90;;;20.90;62.10;;;;;;4981410;28;20189;-67
2023/06/02 00:55:07;;;;;;;2.20;2.00;;;20.90;62.80;;;;;;4976951;28;20194;-67
2023/06/02 00:57:33;;;;;;;1.80;1.70;;;20.90;62.00;;;;;;4987815;28;20275;-69
2023/06/02 01:00:03;;;;;;;2.05;1.92;;;20.90;62.10;;;;;;4976007;28;20223;-67
2023/06/02 01:02:28;;;;;;;2.40;2.20;;;20.90;62.10;;;;;;4974964;28;20185;-67
2023/06/02 01:04:57;;;;;;;2.35;2.15;;;20.90;62.00;;;;;;4974504;28;20209;-67
2023/06/02 01:07:25;;;;;;;2.20;2.00;;;20.90;62.10;;;;;;4990871;28;20214;-67
2023/06/02 01:09:59;;;;;;;2.05;1.90;;;20.90;62.10;;;;;;4982563;28;20193;-68
2023/06/02 01:12:26;;;;;;;2.42;2.22;;;20.90;62.00;;;;;;4988529;28;20268;-69
2023/06/02 01:14:52;;;;;;;2.13;2.03;;;20.90;62.20;;;;;;4977680;28;20204;-67
2023/06/02 01:17:18;;;;;;;2.22;2.00;;;20.90;62.20;;;;;;5002646;28;20213;-67
2023/06/02 01:19:49;;;;;;;2.08;1.98;;;20.90;62.10;;;;;;4985697;28;20216;-68
2023/06/02 01:22:23;;;;;;;1.90;1.80;;;20.90;62.10;;;;;;4979195;28;20185;-67
2023/06/02 01:24:49;;;;;;;2.38;1.88;;;20.90;62.10;;;;;;4982109;28;20657;-67
2023/06/02 01:27:16;;;;;;;2.35;2.10;;;20.90;62.10;;;;;;4982359;28;20206;-68
2023/06/02 01:29:45;;;;;;;2.20;2.00;;;20.90;62.20;;;;;;4973887;28;20669;-68
2023/06/02 01:32:41;;;;;;;2.28;2.08;;;20.90;62.10;;;;;;4974081;28;20186;-67
2023/06/02 01:35:15;;;;;;;1.98;1.73;;;20.90;62.10;;;;;;4985574;28;20210;-66
2023/06/02 01:37:54;;;;;;;2.20;2.00;;;20.90;62.10;;;;;;4987069;28;20236;-67
2023/06/02 01:40:24;;;;;;;2.30;2.10;;;20.90;62.20;;;;;;4974900;28;20210;-67
2023/06/02 01:42:52;;;;;;;1.88;1.77;;;20.90;62.20;;;;;;5006202;28;20197;-67
2023/06/02 01:45:21;;;;;;;2.40;2.20;;;20.90;62.10;;;;;;4990595;28;20182;-67
2023/06/02 01:47:47;;;;;;;2.10;2.00;;;20.90;62.00;;;;;;4989570;28;20212;-67
2023/06/02 01:50:13;;;;;;;2.17;1.98;;;20.90;62.10;;;;;;4993222;28;20276;-67
2023/06/02 01:52:39;;;;;;;2.38;2.15;;;20.80;62.10;;;;;;4978815;28;20332;-67
2023/06/02 01:55:05;;;;;;;2.20;2.00;;;20.80;62.10;;;;;;4982073;28;20185;-67
2023/06/02 01:57:33;;;;;;;2.08;1.98;;;20.80;62.00;;;;;;4987052;28;20219;-67
2023/06/02 01:59:59;;;;;;;2.03;1.92;;;20.80;62.10;;;;;;4984959;28;20216;-67
2023/06/02 02:02:25;;;;;;;2.38;2.00;;;20.80;62.10;;;;;;4980873;28;20256;-67
2023/06/02 02:04:51;;;;;;;2.10;1.90;;;20.80;62.10;;;;;;4989839;28;20221;-67
2023/06/02 02:07:19;;;;;;;2.03;1.80;;;20.80;62.00;;;;;;4981736;28;20580;-67
2023/06/02 02:09:46;;;;;;;2.28;2.08;;;20.80;62.10;;;;;;4988498;28;20197;-67
2023/06/02 02:12:12;;;;;;;1.90;1.70;;;20.80;62.00;;;;;;4993165;28;20192;-67
2023/06/02 02:14:38;;;;;;;2.10;1.90;;;20.80;62.00;;;;;;4978694;28;20193;-68
2023/06/02 02:17:04;;;;;;;1.88;1.77;;;20.80;62.00;;;;;;4973145;28;20214;-68
2023/06/02 02:19:31;;;;;;;2.25;2.05;;;20.80;62.00;;;;;;4981303;28;20192;-68
2023/06/02 02:21:58;;;;;;;1.80;1.70;;;20.80;62.00;;;;;;4997682;28;20185;-67
2023/06/02 02:24:23;;;;;;;2.20;2.00;;;20.80;62.00;;;;;;4976190;28;20185;-67
2023/06/02 02:26:49;;;;;;;2.25;2.03;;;20.80;62.00;;;;;;4984525;28;20216;-67
2023/06/02 02:29:15;;;;;;;1.83;1.73;;;20.90;62.10;;;;;;4984232;28;20236;-66
2023/06/02 02:31:41;;;;;;;2.42;2.22;;;20.80;62.00;;;;;;4978062;28;20221;-67
2023/06/02 02:34:07;;;;;;;2.20;2.00;;;20.80;62.00;;;;;;4972889;28;20196;-67
2023/06/02 02:36:33;;;;;;;2.30;2.10;;;20.80;62.00;;;;;;4989187;28;20182;-67
2023/06/02 02:38:59;;;;;;;2.47;1.83;;;20.80;62.00;;;;;;4991070;28;20675;-67
2023/06/02 02:41:26;;;;;;;1.85;1.75;;;20.70;62.00;;;;;;4977137;28;20267;-67
2023/06/02 02:43:51;;;;;;;2.20;2.10;;;20.80;62.10;;;;;;4984167;28;20196;-68
2023/06/02 02:46:17;;;;;;;2.25;2.05;;;20.80;62.00;;;;;;4984296;28;20185;-68
2023/06/02 02:48:43;;;;;;;2.20;2.00;;;20.80;62.00;;;;;;4975669;28;20206;-68
2023/06/02 02:51:09;;;;;;;2.08;1.92;;;20.80;62.00;;;;;;4964980;28;20675;-68
2023/06/02 02:53:35;;;;;;;1.90;1.80;;;20.80;62.00;;;;;;4972918;28;20347;-67
2023/06/02 02:56:02;;;;;;;2.15;1.92;;;20.70;62.00;;;;;;4985532;28;20238;-67
2023/06/02 02:58:28;;;;;;;2.88;1.98;;;20.80;62.00;;;;;;4972292;28;20220;-67
2023/06/02 03:00:55;;;;;;;2.03;1.90;;;20.80;62.00;;;;;;4988686;28;20371;-67
2023/06/02 03:03:22;;;;;;;2.03;1.83;;;20.80;62.00;;;;;;4976151;28;20243;-67
2023/06/02 03:05:49;;;;;;;1.88;1.58;;;20.70;61.90;;;;;;4976806;28;20188;-65
2023/06/02 03:08:17;;;;;;;2.50;2.28;;;20.80;62.00;;;;;;4964270;28;20280;-68
2023/06/02 03:10:46;;;;;;;1.90;1.80;;;20.70;61.90;;;;;;4980601;28;20236;-67
2023/06/02 03:13:14;;;;;;;1.95;1.85;;;20.80;62.00;;;;;;4972265;28;20185;-67
2023/06/02 03:15:40;;;;;;;1.83;1.73;;;20.70;61.80;;;;;;4980468;28;20224;-67
2023/06/02 03:18:06;;;;;;;1.95;1.85;;;20.80;62.00;;;;;;5005927;28;20263;-66
2023/06/02 03:20:32;;;;;;;2.75;2.20;;;20.70;61.80;;;;;;4986628;28;20213;-67
2023/06/02 03:22:58;;;;;;;1.98;1.77;;;20.70;61.90;;;;;;4979943;28;20190;-67
2023/06/02 03:25:24;;;;;;;2.28;1.90;;;20.70;61.80;;;;;;5000169;28;20211;-67
2023/06/02 03:27:53;;;;;;;2.10;1.90;;;20.70;61.80;;;;;;4984282;28;20264;-67
2023/06/02 03:30:20;;;;;;;2.08;1.88;;;20.70;61.80;;;;;;4980155;28;20569;-68
2023/06/02 03:32:47;;;;;;;2.20;2.00;;;20.70;61.90;;;;;;4980223;28;20273;-67
2023/06/02 03:35:12;;;;;;;2.45;2.00;;;20.70;61.90;;;;;;4998190;28;20582;-67
2023/06/02 03:37:40;;;;;;;2.03;1.92;;;20.70;61.90;;;;;;4977935;28;20211;-67
2023/06/02 03:40:08;;;;;;;1.90;1.80;;;20.70;62.00;;;;;;4979706;28;20274;-68
2023/06/02 03:42:35;;;;;;;2.10;2.00;;;20.70;62.00;;;;;;4988314;28;20272;-67
2023/06/02 03:45:04;;;;;;;2.20;2.00;;;20.70;62.00;;;;;;4981126;28;20569;-67
2023/06/02 03:47:30;;;;;;;2.40;2.20;;;20.70;61.90;;;;;;4991545;28;20201;-67
2023/06/02 03:49:56;;;;;;;2.35;2.15;;;20.70;61.90;;;;;;4991541;28;20188;-67
2023/06/02 03:52:24;;;;;;;2.28;2.13;;;20.70;61.90;;;;;;4980028;28;20196;-67
2023/06/02 03:54:50;;;;;;;1.95;1.80;;;20.70;61.80;;;;;;4986900;28;20185;-67
2023/06/02 03:57:17;;;;;;;2.42;2.22;;;20.70;61.80;;;;;;4988833;28;20220;-67
2023/06/02 03:59:43;;;;;;;2.15;2.00;;;20.70;61.80;;;;;;4979706;28;20213;-67
2023/06/02 04:02:10;;;;;;;2.00;1.90;;;20.70;61.80;;;;;;4979878;28;20185;-67
2023/06/02 04:04:36;;;;;;;1.90;1.80;;;20.70;61.80;;;;;;4972053;28;20232;-67
2023/06/02 04:07:02;;;;;;;1.80;1.70;;;20.70;62.60;;;;;;4971583;28;20201;-67
2023/06/02 04:09:29;;;;;;;1.85;1.75;;;20.70;61.80;;;;;;4995928;28;20193;-67
2023/06/02 04:11:54;;;;;;;2.17;1.83;;;20.60;61.60;;;;;;4979079;28;20192;-67
2023/06/02 04:14:21;;;;;;;2.13;1.98;;;20.70;61.80;;;;;;4975038;28;20181;-67
2023/06/02 04:16:48;;;;;;;2.30;2.10;;;20.70;61.80;;;;;;4976477;28;20244;-67
2023/06/02 04:19:15;;;;;;;1.90;1.80;;;20.70;61.80;;;;;;4979409;28;20189;-67
2023/06/02 04:21:41;;;;;;;2.33;2.13;;;20.70;61.80;;;;;;4971721;28;20206;-67
2023/06/02 04:24:07;;;;;;;2.40;2.20;;;20.60;61.70;;;;;;4987939;28;20181;-67
2023/06/02 04:26:33;;;;;;;2.03;1.92;;;20.70;61.80;;;;;;4987903;28;20186;-67
2023/06/02 04:29:00;;;;;;;2.25;2.05;;;20.60;61.80;;;;;;4990830;28;20181;-67
2023/06/02 04:31:47;;;;;;;2.00;1.90;;;20.60;61.80;;;;;;4986527;28;20669;-69
2023/06/02 04:34:21;;;;;;;2.38;2.17;;;20.60;61.70;;;;;;4983450;28;20198;-67
2023/06/02 04:36:48;;;;;;;2.15;2.03;;;20.60;61.70;;;;;;4983093;28;20210;-67
2023/06/02 04:39:14;;;;;;;1.80;1.70;;;20.60;61.70;;;;;;4983029;28;20251;-67
2023/06/02 04:41:40;;;;;;;2.05;1.95;;;20.60;61.70;;;;;;4991304;28;20213;-67
2023/06/02 04:44:08;;;;;;;2.08;1.88;;;20.60;61.60;;;;;;4974872;28;20189;-68
2023/06/02 04:46:35;;;;;;;2.00;1.80;;;20.60;61.60;;;;;;4975062;28;20186;-68
2023/06/02 04:49:01;;;;;;;2.00;1.80;;;20.60;61.70;;;;;;4974473;28;20189;-67
2023/06/02 04:51:29;;;;;;;2.20;2.10;;;20.60;61.70;;;;;;4999107;28;20193;-68
2023/06/02 04:53:55;;;;;;;2.15;2.05;;;20.60;61.70;;;;;;4986940;28;20196;-67
2023/06/02 04:56:27;;;;;;;2.00;1.85;;;20.60;61.80;;;;;;4985422;28;20257;-68
2023/06/02 04:58:54;;;;;;;2.10;1.73;;;20.60;61.80;;;;;;4985888;28;20303;-68
2023/06/02 05:01:19;;;;;;;2.75;1.90;;;20.60;61.90;;;;;;4983556;28;20270;-68
2023/06/02 05:03:46;;;;;;;1.85;1.75;;;20.60;61.80;;;;;;4988485;28;20188;-69
2023/06/02 05:06:12;;;;;;;2.13;1.92;;;20.60;61.80;;;;;;4992799;28;20185;-68
2023/06/02 05:08:38;;;;;;;2.25;1.90;;;20.60;61.90;;;;;;4978920;28;20700;-68
2023/06/02 05:11:08;;;;;;;2.70;2.50;;;20.60;61.80;;;;;;4993842;28;20244;-68
2023/06/02 05:13:35;;;;;;;1.92;1.83;;;20.60;61.90;;;;;;4974767;28;20193;-68
2023/06/02 05:16:02;;;;;;;2.13;1.92;;;20.60;61.90;;;;;;4990408;28;20190;-68
2023/06/02 05:18:28;;;;;;;1.80;1.65;;;20.60;61.90;;;;;;4974052;28;20216;-67
2023/06/02 05:20:55;;;;;;;2.58;2.00;;;20.60;61.90;;;;;;4974163;28;20580;-67
2023/06/02 05:23:21;;;;;;;2.17;2.08;;;20.60;61.90;;;;;;4984449;28;20305;-68
2023/06/02 05:25:49;;;;;;;3.25;2.33;;;20.60;61.90;;;;;;4985546;28;20228;-68
2023/06/02 05:28:16;;;;;;;2.38;2.17;;;20.60;61.90;;;;;;4983571;28;20300;-68
2023/06/02 05:30:43;;;;;;;3.28;2.13;;;20.60;61.90;;;;;;4979139;28;20227;-67
2023/06/02 05:33:09;;;;;;;2.38;2.17;;;20.60;62.10;;;;;;4984673;28;20684;-68
2023/06/02 05:35:35;;;;;;;2.38;2.22;;;20.60;61.90;;;;;;4974144;28;20192;-67
2023/06/02 05:38:02;;;;;;;3.58;2.50;;;20.60;61.90;;;;;;4970624;28;20245;-67
2023/06/02 05:40:28;;;;;;;2.28;2.10;;;20.60;61.90;;;;;;4984970;28;20224;-68
2023/06/02 05:42:53;;;;;;;2.60;2.22;;;20.60;62.00;;;;;;4979091;28;20186;-67
2023/06/02 05:45:19;;;;;;;2.30;2.10;;;20.60;62.00;;;;;;4957074;28;20194;-67
2023/06/02 05:47:50;;;;;;;2.25;2.05;;;20.60;62.00;;;;;;4979627;28;20250;-67
2023/06/02 05:50:17;;;;;;;2.17;1.98;;;20.60;62.00;;;;;;4984837;28;20193;-67
2023/06/02 05:52:43;;;;;;;2.28;2.08;;;20.60;62.00;;;;;;4988222;28;20193;-67
2023/06/02 05:55:10;;;;;;;2.60;2.40;;;20.60;62.10;;;;;;4989803;28;20185;-67
2023/06/02 05:57:37;;;;;;;3.33;2.38;;;20.60;62.10;;;;;;4969525;28;20220;-68
2023/06/02 06:00:07;;;;;;;2.42;2.22;;;20.60;62.10;;;;;;4976876;28;20217;-68
2023/06/02 06:02:38;;;;;;;2.33;2.13;;;20.60;62.00;;;;;;4996964;28;20200;-68
2023/06/02 06:05:07;;;;;;;2.20;2.00;;;20.70;62.10;;;;;;4985137;28;20191;-68
2023/06/02 06:07:33;;;;;;;2.38;2.17;;;20.60;61.90;;;;;;4989274;28;20210;-68
2023/06/02 06:09:59;;;;;;;2.67;2.47;;;20.70;62.00;;;;;;4989608;28;20193;-68
2023/06/02 06:12:25;;;;;;;3.85;2.28;;;20.60;61.90;;;;;;4973520;28;20236;-68
2023/06/02 06:14:51;;;;;;;2.40;2.20;;;20.60;61.80;;;;;;4973126;28;20245;-69
2023/06/02 06:17:17;;;;;;;2.60;2.25;;;20.70;62.00;;;;;;4992341;28;20217;-69
2023/06/02 06:19:43;;;;;;;2.40;2.20;;;20.70;61.90;;;;;;4976233;28;20185;-69
2023/06/02 06:22:09;;;;;;;2.58;2.38;;;20.70;62.00;;;;;;4989685;28;20185;-68
2023/06/02 06:24:37;;;;;;;2.58;2.38;;;20.70;62.00;;;;;;4992782;28;20186;-68
2023/06/02 06:27:03;;;;;;;3.10;2.40;;;20.70;61.90;;;;;;4980072;28;20255;-68
2023/06/02 06:29:30;;;;;;;3.35;2.33;;;20.70;62.00;;;;;;4984030;28;20185;-68
2023/06/02 06:31:56;;;;;;;2.38;2.20;;;20.70;61.90;;;;;;4977973;28;20276;-68
2023/06/02 06:34:22;;;;;;;2.50;2.30;;;20.70;61.80;;;;;;4976121;28;20200;-68
2023/06/02 06:36:48;;;;;;;2.58;2.38;;;20.70;62.00;;;;;;4986888;28;20192;-68
2023/06/02 06:39:15;;;;;;;2.92;2.63;;;20.70;62.00;;;;;;4978181;28;20186;-68
2023/06/02 06:41:42;;;;;;;3.42;2.78;;;20.70;62.00;;;;;;4981175;28;20217;-68
2023/06/02 06:44:28;;;;;;;2.60;2.40;;;20.70;62.00;;;;;;4985358;28;20209;-69
2023/06/02 06:46:54;;;;;;;2.53;2.33;;;20.70;62.00;;;;;;4987119;28;20227;-68
2023/06/02 06:49:20;;;;;;;3.97;2.78;;;20.70;62.00;;;;;;4982174;28;20257;-68
2023/06/02 06:51:46;;;;;;;3.50;2.45;;;20.70;62.00;;;;;;4985935;28;20196;-68
2023/06/02 06:54:15;;;;;;;3.33;2.38;;;20.70;62.00;;;;;;4984175;28;20197;-68
2023/06/02 06:56:43;;;;;;;2.55;2.28;;;20.70;62.00;;;;;;4987725;28;20250;-69
2023/06/02 06:59:10;;;;;;;2.85;2.58;;;20.70;62.00;;;;;;4974107;28;20178;-68
2023/06/02 07:01:37;;;;;;;2.42;2.22;;;20.70;62.10;;;;;;4987308;28;20250;-68
2023/06/02 07:04:03;;;;;;;2.50;2.30;;;20.70;62.00;;;;;;4972471;28;20178;-69
2023/06/02 07:06:29;;;;;;;3.00;2.65;;;20.70;62.10;;;;;;4988612;28;20185;-68
2023/06/02 07:08:55;;;;;;;2.72;2.53;;;20.70;62.00;;;;;;4987455;28;20189;-68
2023/06/02 07:11:21;;;;;;;3.03;2.70;;;20.70;62.10;;;;;;4983341;28;20189;-68
2023/06/02 07:13:47;;;;;;;2.55;2.35;;;20.70;62.00;;;;;;4985553;28;20220;-68
2023/06/02 07:16:12;;;;;;;2.85;2.40;;;20.70;62.10;;;;;;4991359;28;20199;-68
2023/06/02 07:18:38;;;;;;;2.58;2.38;;;20.70;62.10;;;;;;4992061;28;20212;-68
2023/06/02 07:21:04;;;;;;;2.63;2.40;;;20.80;62.20;;;;;;4976398;28;20209;-68
2023/06/02 07:23:30;;;;;;;2.83;2.53;;;20.80;62.10;;;;;;4989456;28;20247;-68
2023/06/02 07:25:56;;;;;;;3.30;2.38;;;20.70;62.00;;;;;;4972480;28;20189;-68
2023/06/02 07:28:21;;;;;;;2.63;2.42;;;20.80;62.20;;;;;;4988193;28;20263;-68
2023/06/02 07:30:48;;;;;;;3.22;2.95;;;20.80;62.20;;;;;;4985359;28;20196;-68
2023/06/02 07:33:15;;;;;;;3.05;2.85;;;20.70;62.10;;;;;;4999412;28;20360;-67
2023/06/02 07:35:41;;;;;;;3.08;2.45;;;20.80;62.20;;;;;;4972350;28;20192;-68
2023/06/02 07:38:07;;;;;;;2.90;2.70;;;20.80;62.20;;;;;;4972053;28;20217;-71
2023/06/02 07:40:32;;;;;;;2.58;2.38;;;20.80;62.20;;;;;;4988014;28;20217;-68
2023/06/02 07:42:58;;;;;;;2.92;2.35;;;20.80;62.20;;;;;;4988316;28;20324;-70
2023/06/02 07:45:25;;;;;;;3.20;2.90;;;20.80;62.10;;;;;;4987998;28;20206;-65
2023/06/02 07:47:51;;;;;;;2.78;2.50;;;20.80;62.30;;;;;;4988163;28;20295;-68
2023/06/02 07:50:18;;;;;;;3.10;2.58;;;20.80;62.20;;;;;;4996966;28;20313;-68
2023/06/02 07:52:45;;;;;;;2.92;2.60;;;20.80;62.20;;;;;;4987175;28;20684;-68
2023/06/02 07:55:12;;;;;;;3.55;2.50;;;20.80;62.20;;;;;;4980413;28;20264;-69
2023/06/02 07:57:38;;;;;;;3.00;2.70;;;20.80;62.30;;;;;;4968610;28;20240;-68
2023/06/02 08:00:16;;;;;;;3.03;2.72;;;20.80;62.30;;;;;;4967264;28;20214;-68
2023/06/02 08:02:49;;;;;;;3.30;3.00;;;20.90;62.40;;;;;;4988007;28;20196;-68
2023/06/02 08:05:16;;;;;;;3.13;2.72;;;20.90;62.40;;;;;;4976789;28;20181;-68
2023/06/02 08:07:43;;;;;;;3.10;2.70;;;20.90;62.40;;;;;;4978105;28;20200;-68
2023/06/02 08:10:09;;;;;;;4.00;2.83;;;20.90;62.40;;;;;;4995666;28;20193;-68
2023/06/02 08:12:36;;;;;;;3.88;3.10;;;20.90;62.40;;;;;;4991399;28;20190;-68
2023/06/02 08:15:03;;;;;;;2.92;2.72;;;20.90;62.50;;;;;;4991740;28;20193;-68
2023/06/02 08:17:29;;;;;;;3.15;2.88;;;20.90;62.40;;;;;;4992904;28;20220;-68
2023/06/02 08:20:00;;;;;;;3.47;2.70;;;20.90;62.50;;;;;;4976413;28;20272;-67
2023/06/02 08:22:27;;;;;;;3.45;3.13;;;20.90;62.50;;;;;;4992969;28;20188;-65
2023/06/02 08:24:57;;;;;;;3.53;2.90;;;20.90;62.50;;;;;;4989490;28;20191;-72
2023/06/02 08:27:24;;;;;;;2.92;2.63;;;20.90;62.50;;;;;;4984401;28;20215;-67
2023/06/02 08:29:51;;;;;;;3.35;2.70;;;21.00;62.60;;;;;;4967417;28;20209;-67
2023/06/02 08:32:18;;;;;;;3.92;2.95;;;21.00;62.70;;;;;;4975682;28;20272;-65
2023/06/02 08:34:54;;;;;;;3.67;2.95;;;21.00;62.70;;;;;;4983876;28;20196;-68
2023/06/02 08:37:21;;;;;;;2.90;2.70;;;21.00;62.70;;;;;;5007321;28;20244;-68
2023/06/02 08:39:50;;;;;;;4.47;3.17;;;21.00;62.70;;;;;;4982054;28;20217;-68
2023/06/02 08:42:16;;;;;;;3.20;2.90;;;21.00;62.70;;;;;;4991440;28;20276;-70
2023/06/02 08:44:44;;;;;;;3.22;2.90;;;21.00;62.70;;;;;;4982858;28;20194;-68
2023/06/02 08:47:12;;;;;;;2.88;2.67;;;21.00;63.00;;;;;;4974779;28;20214;-68
2023/06/02 08:49:45;;;;;;;3.90;3.05;;;21.00;62.80;;;;;;4974238;28;20186;-68
2023/06/02 08:52:22;;;;;;;3.30;2.80;;;21.10;63.60;;;;;;4983168;28;20194;-68
2023/06/02 08:54:49;;;;;;;3.88;2.60;;;21.10;62.80;;;;;;4976713;28;20191;-68
2023/06/02 08:57:16;;;;;;;2.80;2.60;;;21.10;62.90;;;;;;4983595;28;20240;-69
2023/06/02 08:59:44;;;;;;;3.00;2.70;;;21.10;62.90;;;;;;4990853;28;20189;-68
2023/06/02 09:02:10;;;;;;;3.90;2.60;;;21.10;62.90;;;;;;4990100;28;20256;-68
2023/06/02 09:04:36;;;;;;;4.55;3.10;;;21.10;62.90;;;;;;4977720;28;20204;-68
2023/06/02 09:07:11;;;;;;;3.15;2.85;;;21.10;63.00;;;;;;4987847;28;20284;-68
2023/06/02 09:09:47;;;;;;;3.67;2.78;;;21.10;63.10;;;;;;4977007;28;20200;-68
2023/06/02 09:12:14;;;;;;;3.00;2.80;;;21.10;63.10;;;;;;5002852;28;20276;-68
2023/06/02 09:14:40;;;;;;;3.53;2.78;;;21.10;63.10;;;;;;4974519;28;20186;-68
2023/06/02 09:17:30;;;;;;;3.40;3.05;;;21.10;63.20;;;;;;4974237;28;20234;-67
2023/06/02 09:20:09;;;;;;;5.90;3.22;;;21.10;63.10;;;;;;4972210;28;20189;-68
2023/06/02 09:22:34;;;;;;;4.57;3.00;;;21.10;63.20;;;;;;4985491;28;20197;-68
2023/06/02 09:25:00;;;;;;;2.75;2.55;;;21.10;63.10;;;;;;4979889;28;20189;-68
2023/06/02 09:27:26;;;;;;;3.20;2.90;;;21.10;63.20;;;;;;4965820;28;20227;-68
2023/06/02 09:30:02;;;;;;;3.75;2.90;;;21.10;63.10;;;;;;4990332;28;20200;-68
2023/06/02 09:32:28;;;;;;;3.28;2.90;;;21.10;63.30;;;;;;4982477;28;20280;-68
2023/06/02 09:34:53;;;;;;;3.92;3.50;;;21.10;63.20;;;;;;4988820;28;20272;-68
2023/06/02 09:37:20;;;;;;;3.50;3.20;;;21.10;63.20;;;;;;4982189;28;20352;-68
2023/06/02 09:39:57;;;;;;;3.47;3.10;;;21.10;63.30;;;;;;4993649;28;20189;-68
2023/06/02 09:42:22;;;;;;;3.40;3.10;;;21.10;63.30;;;;;;4974077;28;20197;-68
2023/06/02 09:45:06;;;;;;;3.50;3.20;;;21.10;63.30;;;;;;4977869;28;20189;-68
2023/06/02 09:47:41;;;;;;;4.10;3.00;;;21.20;63.50;;;;;;4974179;28;20211;-68
2023/06/02 09:50:09;;;;;;;3.83;3.47;;;21.10;63.30;;;;;;4988264;28;20257;-67
2023/06/02 09:52:35;;;;;;;3.40;3.08;;;21.10;63.30;;;;;;4985087;28;20200;-68
2023/06/02 09:55:01;;;;;;;3.70;3.25;;;21.20;63.50;;;;;;4987769;28;20193;-68
2023/06/02 09:57:27;;;;;;;2.72;2.53;;;21.20;63.50;;;;;;4981302;28;20249;-68
2023/06/02 09:59:55;;;;;;;4.78;2.97;;;21.20;63.50;;;;;;4973431;28;20194;-68
2023/06/02 10:02:20;;;;;;;4.63;3.25;;;21.20;63.50;;;;;;4990053;28;20190;-68
2023/06/02 10:04:46;;;;;;;3.38;3.08;;;21.20;63.60;;;;;;4992878;28;20189;-68
2023/06/02 10:07:36;;;;;;;3.65;3.05;;;21.20;63.50;;;;;;4992788;28;20688;-68
2023/06/02 10:10:13;;;;;;;7.50;3.33;;;21.20;63.60;;;;;;4980389;28;20197;-68
2023/06/02 10:12:55;;;;;;;4.10;3.30;;;21.20;63.70;;;;;;4989476;28;20196;-68
2023/06/02 10:16:10;;;;;;;3.70;3.40;;;21.20;63.70;;;;;;4973435;28;20333;-67
2023/06/02 10:19:20;;;;;;;4.00;3.45;;;21.20;63.70;;;;;;4983162;28;20256;-67
2023/06/02 10:22:10;;;;;;;4.13;3.72;;;21.20;63.80;;;;;;4984644;28;20215;-67
2023/06/02 10:25:10;;;;;;;3.75;3.38;;;21.20;63.70;;;;;;4984700;28;20196;-67
2023/06/02 10:27:40;;;;;;;4.22;3.30;;;21.20;63.70;;;;;;4990835;28;20212;-68
2023/06/02 10:30:07;;;;;;;4.70;3.17;;;21.20;63.80;;;;;;4973076;28;20192;-66
2023/06/02 10:32:46;;;;;;;4.65;3.78;;;21.20;63.70;;;;;;4971254;28;20186;-68
2023/06/02 10:35:12;;;;;;;4.15;3.15;;;21.20;63.70;;;;;;4980030;28;20215;-68
2023/06/02 10:37:39;;;;;;;4.93;3.30;;;21.20;63.70;;;;;;4976308;28;20205;-68
2023/06/02 10:40:08;;;;;;;4.97;3.90;;;21.20;63.70;;;;;;5000415;28;20205;-68
2023/06/02 10:42:34;;;;;;;3.78;3.38;;;21.20;63.80;;;;;;4990962;28;20249;-68
2023/06/02 10:45:20;;;;;;;4.05;3.65;;;21.20;63.80;;;;;;4988926;28;20189;-68
2023/06/02 10:47:46;;;;;;;6.32;3.80;;;21.20;63.90;;;;;;4990302;28;20280;-68
2023/06/02 10:50:17;;;;;;;4.18;3.75;;;21.20;63.90;;;;;;4980723;28;20205;-68
2023/06/02 10:52:59;;;;;;;4.25;3.85;;;21.20;64.00;;;;;;4997036;28;20197;-68
2023/06/02 10:55:33;;;;;;;5.60;3.60;;;21.20;63.90;;;;;;4988880;28;20678;-67
2023/06/02 10:58:03;;;;;;;4.07;3.63;;;21.20;63.90;;;;;;4972585;28;20227;-68
2023/06/02 11:00:43;;;;;;;3.97;3.67;;;21.20;63.90;;;;;;4974184;28;20441;-68
2023/06/02 11:03:14;;;;;;;4.10;3.70;;;21.20;64.00;;;;;;4985664;28;20324;-68
2023/06/02 11:05:41;;;;;;;4.32;3.88;;;21.20;63.80;;;;;;4988509;28;20625;-70
2023/06/02 11:10:44;;;;;;;4.80;3.75;;;21.30;64.00;;;;;;4988630;28;20207;-68
2023/06/02 11:13:11;;;;;;;5.65;3.80;;;21.20;63.90;;;;;;4972141;28;20193;-67
2023/06/02 11:15:37;;;;;;;4.20;3.75;;;21.20;64.00;;;;;;4973491;28;20197;-68
2023/06/02 11:18:31;;;;;;;4.75;3.75;;;21.20;64.00;;;;;;4993575;28;20696;-69
2023/06/02 11:21:16;;;;;;;4.40;4.00;;;21.20;64.00;;;;;;4950778;28;20236;-67
2023/06/02 11:23:42;;;;;;;4.22;3.67;;;21.30;64.00;;;;;;4980171;28;20213;-67
2023/06/02 11:26:15;;;;;;;4.18;3.78;;;21.20;64.00;;;;;;4972328;28;20185;-68
2023/06/02 11:28:41;;;;;;;4.28;3.70;;;21.30;64.00;;;;;;4971933;28;20217;-67
2023/06/02 11:31:11;;;;;;;4.30;3.92;;;21.20;64.00;;;;;;4985982;28;20192;-67
2023/06/02 11:33:41;;;;;;;4.53;3.40;;;21.30;64.80;;;;;;4981684;28;20190;-67
2023/06/02 11:36:13;;;;;;;4.47;3.50;;;21.20;64.00;;;;;;4977821;28;20192;-67
2023/06/02 11:38:39;;;;;;;4.30;3.90;;;21.30;64.10;;;;;;4973273;28;20224;-67
2023/06/02 11:41:11;;;;;;;4.10;3.70;;;21.20;64.00;;;;;;4988509;28;20248;-67
2023/06/02 11:44:04;;;;;;;4.55;4.15;;;21.30;64.10;;;;;;4974242;28;20194;-68
2023/06/02 11:46:30;;;;;;;4.05;3.65;;;21.30;64.20;;;;;;4972746;28;20201;-67
2023/06/02 11:48:56;;;;;;;5.50;4.30;;;21.30;64.20;;;;;;4980004;28;20264;-67
2023/06/02 11:51:22;;;;;;;5.03;4.53;;;21.30;64.10;;;;;;4976792;28;20333;-66
2023/06/02 11:54:00;;;;;;;4.30;3.90;;;21.30;64.20;;;;;;4983407;28;20365;-65
2023/06/02 11:56:26;;;;;;;4.55;3.40;;;21.30;64.20;;;;;;4985057;28;20215;-69
2023/06/02 11:58:52;;;;;;;4.75;4.25;;;21.30;65.00;;;;;;4991947;28;20220;-67
2023/06/02 12:01:21;;;;;;;4.30;3.90;;;21.20;64.10;;;;;;4972498;28;20234;-67
2023/06/02 12:04:02;;;;;;;4.85;4.18;;;21.30;64.20;;;;;;4991857;28;20271;-68
2023/06/02 12:06:29;;;;;;;5.32;3.90;;;21.30;64.20;;;;;;4991815;28;20211;-68
2023/06/02 12:08:55;;;;;;;5.85;3.75;;;21.30;64.30;;;;;;4979138;28;20278;-67
2023/06/02 12:11:25;;;;;;;4.15;3.72;;;21.30;64.40;;;;;;4987918;28;20284;-68
2023/06/02 12:14:08;;;;;;;4.28;3.65;;;21.30;64.40;;;;;;4984723;28;20189;-67
2023/06/02 12:16:37;;;;;;;4.93;4.28;;;21.30;64.30;;;;;;5000719;28;20200;-68
2023/06/02 12:19:19;;;;;;;4.25;3.83;;;21.30;64.30;;;;;;4998561;28;20190;-67
2023/06/02 12:21:46;;;;;;;4.63;4.22;;;21.30;65.10;;;;;;4983442;28;20209;-67
2023/06/02 12:24:32;;;;;;;5.05;4.47;;;21.30;64.30;;;;;;4975415;28;20182;-67
2023/06/02 12:26:58;;;;;;;5.18;4.18;;;21.30;64.30;;;;;;4983264;28;20233;-67
2023/06/02 12:29:24;;;;;;;4.32;3.95;;;21.30;64.50;;;;;;4974988;28;20240;-68
2023/06/02 12:32:07;;;;;;;4.28;3.88;;;21.30;64.30;;;;;;4975066;28;20251;-68
2023/06/02 12:34:34;;;;;;;4.57;4.18;;;21.30;64.20;;;;;;4975058;28;20280;-67
2023/06/02 12:37:02;;;;;;;4.07;3.67;;;21.30;64.30;;;;;;4991130;28;20216;-67
2023/06/02 12:39:28;;;;;;;4.28;3.88;;;21.40;64.50;;;;;;4991096;28;20224;-67
2023/06/02 12:41:53;;;;;;;5.47;3.60;;;21.30;64.30;;;;;;4974828;28;20241;-67
2023/06/02 12:44:20;;;;;;;5.40;4.00;;;21.30;64.40;;;;;;4997906;28;20191;-67
2023/06/02 12:46:48;;;;;;;4.47;4.07;;;21.30;64.50;;;;;;4975918;28;20190;-65
2023/06/02 12:49:13;;;;;;;4.45;4.05;;;21.30;64.40;;;;;;4974962;28;20208;-67
2023/06/02 12:51:39;;;;;;;4.25;3.90;;;21.40;64.40;;;;;;4974995;28;20193;-68
2023/06/02 12:54:05;;;;;;;4.90;3.70;;;21.40;64.50;;;;;;4974608;28;20317;-67
2023/06/02 12:56:31;;;;;;;4.97;3.78;;;21.40;64.60;;;;;;4974607;28;20190;-68
2023/06/02 12:58:57;;;;;;;4.03;3.65;;;21.40;64.60;;;;;;4978106;28;20246;-67